Terminal Aerodrome Forecast
Issued by NWS North Platte, NE

Home | Current Version | Previous Version | Text Only | Print | Product List | Glossary On
Versions: 1 2 3 4 5 6 7 8 9 10 11 12 13 14 15 16 17 18 19 20
000
FTUS43 KLBF 042300
TAFVTN
TAF
KVTN 042325Z 0500/0524 34012KT P6SM SCT030
     FM050200 VRB06KT P6SM SKC
     FM051900 25008KT P6SM SCT250=

USA.gov is the U.S. government's official web portal to all federal, state and local government web resources and services.